createdAt,value
2022-08-22T00:02:05.254Z,79.57
2022-08-22T00:02:55.136Z,79.89
2022-08-22T00:06:24.519Z,79.66
2022-08-22T00:10:43.452Z,79.64
2022-08-22T00:14:54.187Z,79.92
2022-08-22T00:19:03.866Z,80.12
2022-08-22T00:23:14.807Z,80.28
2022-08-22T00:27:29.544Z,80.48
2022-08-22T00:31:41.920Z,80.53
2022-08-22T00:35:54.363Z,80.57
2022-08-22T00:40:18.745Z,80.87
2022-08-22T00:44:34.093Z,81.22
2022-08-22T00:48:45.024Z,81.51
2022-08-22T00:53:03.665Z,81.73
2022-08-22T00:57:21.884Z,81.93
2022-08-22T01:01:34.168Z,82.16
2022-08-22T01:05:59.925Z,82.33
2022-08-22T01:10:35.146Z,82.53
2022-08-22T01:14:45.670Z,82.74
2022-08-22T01:19:15.845Z,82.90
2022-08-22T01:23:28.050Z,82.90
2022-08-22T01:27:40.143Z,82.88
2022-08-22T01:32:16.345Z,83.01
2022-08-22T01:36:47.332Z,83.14
2022-08-22T01:40:54.196Z,83.15
2022-08-22T01:45:18.705Z,83.36
2022-08-22T01:49:32.295Z,83.52
2022-08-22T01:54:13.858Z,83.93
2022-08-22T01:58:28.997Z,84.18
2022-08-22T02:02:59.837Z,84.30
2022-08-22T02:07:44.639Z,84.57
2022-08-22T02:11:56.161Z,84.62
2022-08-22T02:16:29.097Z,84.68
2022-08-22T02:20:44.117Z,84.77
2022-08-22T02:24:59.387Z,84.76
2022-08-22T02:29:11.756Z,84.69
2022-08-22T02:33:45.317Z,84.89
2022-08-22T02:38:02.756Z,84.98
2022-08-22T02:42:32.346Z,85.17
2022-08-22T02:47:24.515Z,85.20
2022-08-22T02:51:54.377Z,85.37
2022-08-22T02:56:12.335Z,85.46
2022-08-22T03:00:31.891Z,85.58
2022-08-22T03:04:57.136Z,85.65
2022-08-22T03:09:28.556Z,85.82
2022-08-22T03:13:40.701Z,86.07
2022-08-22T03:18:09.701Z,86.12
2022-08-22T03:22:41.958Z,86.22
2022-08-22T03:26:54.237Z,86.25
2022-08-22T03:31:25.297Z,86.35
2022-08-22T03:35:43.618Z,86.46
2022-08-22T03:39:58.706Z,86.49
2022-08-22T03:44:43.273Z,86.40
2022-08-22T03:48:58.683Z,86.50
2022-08-22T03:53:31.454Z,86.63
2022-08-22T03:58:27.373Z,86.86
2022-08-22T04:02:44.328Z,86.99
2022-08-22T04:06:58.961Z,87.06
2022-08-22T04:11:10.826Z,87.25
2022-08-22T04:15:25.926Z,87.32
2022-08-22T04:20:19.397Z,87.61
2022-08-22T04:25:22.737Z,87.92
2022-08-22T04:29:37.712Z,88.08
2022-08-22T04:38:48.364Z,88.16
2022-08-22T04:43:00.975Z,88.32
2022-08-22T04:47:16.165Z,88.41
2022-08-22T04:51:24.943Z,88.41
2022-08-22T05:05:02.836Z,87.95
2022-08-22T05:09:16.311Z,87.72
2022-08-22T05:13:26.386Z,87.40
2022-08-22T05:17:38.578Z,87.24
2022-08-22T05:22:04.581Z,86.95
2022-08-22T05:26:17.390Z,87.01
2022-08-22T05:30:30.143Z,86.77
2022-08-22T05:35:05.728Z,86.42
2022-08-22T05:39:17.306Z,86.15
2022-08-22T05:43:29.315Z,85.98
2022-08-22T05:47:31.595Z,85.80
2022-08-22T05:51:43.896Z,85.47
2022-08-22T05:55:56.554Z,85.13
2022-08-22T06:00:22.774Z,85.21
2022-08-22T06:04:47.415Z,85.18
2022-08-22T06:08:51.815Z,84.99
2022-08-22T06:13:02.943Z,84.63
2022-08-22T06:17:15.416Z,84.51
2022-08-22T06:21:46.048Z,84.48
2022-08-22T06:26:20.825Z,84.39
2022-08-22T06:30:38.887Z,84.43
2022-08-22T06:34:56.058Z,84.37
2022-08-22T06:39:12.803Z,84.49
2022-08-22T06:43:16.476Z,84.65
2022-08-22T06:47:30.035Z,84.68
2022-08-22T06:51:37.348Z,84.57
2022-08-22T06:56:04.570Z,84.34
2022-08-22T07:00:20.110Z,84.02
2022-08-22T07:04:34.298Z,83.66
2022-08-22T07:08:44.156Z,83.34
2022-08-22T07:12:57.426Z,83.11
2022-08-22T07:17:10.976Z,82.88
2022-08-22T07:21:24.037Z,82.57
2022-08-22T07:25:49.157Z,82.56
2022-08-22T07:30:01.420Z,82.09
2022-08-22T07:34:22.777Z,81.67
2022-08-22T07:38:27.621Z,81.62
2022-08-22T07:42:38.395Z,81.25
2022-08-22T07:46:53.346Z,80.77
2022-08-22T07:51:04.811Z,80.13
2022-08-22T07:55:22.560Z,79.58
2022-08-22T07:59:35.142Z,78.63
2022-08-22T08:08:09.494Z,78.24
2022-08-22T08:12:19.750Z,78.33
2022-08-22T08:16:46.508Z,77.47
2022-08-22T08:20:59.035Z,77.27
2022-08-22T08:25:17.251Z,75.48
2022-08-22T08:29:29.901Z,74.93
2022-08-22T08:33:36.929Z,73.12
2022-08-22T08:38:12.425Z,72.67
2022-08-22T08:42:27.470Z,72.34
2022-08-22T08:46:55.513Z,72.79
2022-08-22T08:51:23.507Z,75.17
2022-08-22T08:55:36.497Z,74.74
2022-08-22T09:00:01.577Z,76.90
2022-08-22T09:04:25.009Z,76.45
2022-08-22T09:08:44.260Z,76.68
2022-08-22T09:13:11.434Z,76.38
2022-08-22T09:17:39.882Z,75.01
2022-08-22T09:21:50.476Z,75.63
2022-08-22T09:26:04.944Z,75.32
2022-08-22T09:30:08.045Z,74.40
2022-08-22T09:34:27.442Z,73.57
2022-08-22T09:38:40.290Z,74.27
2022-08-22T09:43:01.238Z,73.16
2022-08-22T09:47:13.691Z,73.81
2022-08-22T09:51:31.598Z,74.09
2022-08-22T09:55:45.705Z,73.89
2022-08-22T10:00:02.118Z,73.15
2022-08-22T10:04:12.548Z,72.00
2022-08-22T10:08:26.338Z,71.99
2022-08-22T10:12:39.337Z,72.20
2022-08-22T10:16:56.322Z,71.05
2022-08-22T10:21:09.613Z,71.28
2022-08-22T10:25:25.144Z,71.13
2022-08-22T10:29:44.006Z,69.38
2022-08-22T10:33:56.436Z,68.65
2022-08-22T10:38:20.787Z,69.48
2022-08-22T10:42:36.453Z,69.09
2022-08-22T10:46:58.060Z,69.70
2022-08-22T10:51:08.803Z,69.84
2022-08-22T10:55:28.300Z,69.81
2022-08-22T10:59:33.825Z,69.72
2022-08-22T11:03:58.393Z,68.67
2022-08-22T11:08:02.766Z,67.85
2022-08-22T11:12:18.138Z,67.90
2022-08-22T11:19:22.481Z,63.86
2022-08-22T11:24:04.549Z,63.29
2022-08-22T11:28:44.078Z,62.73
2022-08-22T11:33:19.800Z,62.61
2022-08-22T11:37:54.958Z,62.49
2022-08-22T11:42:29.646Z,62.96
2022-08-22T11:47:01.884Z,62.30
2022-08-22T11:51:57.570Z,62.73
2022-08-22T11:56:42.730Z,62.99
2022-08-22T12:01:34.496Z,63.19
2022-08-22T12:05:58.477Z,62.86
2022-08-22T12:10:56.848Z,63.48
2022-08-22T12:15:49.003Z,64.09
2022-08-22T12:20:30.136Z,64.15
2022-08-22T12:25:13.623Z,63.95
2022-08-22T12:29:57.309Z,63.64
2022-08-22T12:34:44.422Z,64.27
2022-08-22T12:39:29.571Z,64.77
2022-08-22T12:44:05.029Z,65.03
2022-08-22T12:48:52.977Z,65.54
2022-08-22T12:53:25.410Z,65.71
2022-08-22T12:58:21.180Z,65.76
2022-08-22T13:02:49.704Z,65.34
2022-08-22T13:07:43.549Z,65.87
2022-08-22T13:12:06.569Z,66.31
2022-08-22T13:16:40.332Z,65.82
2022-08-22T13:21:22.158Z,65.56
2022-08-22T13:25:57.526Z,65.65
2022-08-22T13:30:33.096Z,66.01
2022-08-22T13:34:57.490Z,66.93
2022-08-22T13:39:37.217Z,66.86
2022-08-22T13:44:12.846Z,67.68
2022-08-22T13:48:40.638Z,67.18
2022-08-22T13:53:11.818Z,66.13
2022-08-22T13:57:58.185Z,65.84
2022-08-22T14:02:50.361Z,66.24
2022-08-22T14:07:40.817Z,65.96
2022-08-22T14:12:12.602Z,64.67
2022-08-22T14:16:46.027Z,64.33
2022-08-22T14:21:17.943Z,64.31
2022-08-22T14:25:37.173Z,64.54
2022-08-22T14:30:10.807Z,64.11
2022-08-22T14:34:49.414Z,64.52
2022-08-22T14:39:34.794Z,64.52
2022-08-22T14:44:34.069Z,65.14
2022-08-22T14:49:14.370Z,64.82
2022-08-22T14:53:38.899Z,64.66
2022-08-22T14:58:05.876Z,65.16
2022-08-22T15:02:50.704Z,65.28
2022-08-22T15:07:16.868Z,65.41
2022-08-22T15:12:13.761Z,65.86
2022-08-22T15:16:45.065Z,65.55
2022-08-22T15:21:27.681Z,65.82
2022-08-22T15:25:56.654Z,66.78
2022-08-22T15:30:24.047Z,66.73
2022-08-22T15:35:13.737Z,66.13
2022-08-22T15:39:48.238Z,66.48
2022-08-22T15:44:31.072Z,66.28
2022-08-22T15:49:06.386Z,66.65
2022-08-22T15:53:45.207Z,66.93
2022-08-22T15:58:14.125Z,67.61
2022-08-22T16:02:52.268Z,67.89
2022-08-22T16:07:22.271Z,67.98
2022-08-22T16:12:14.861Z,68.13
2022-08-22T16:16:49.664Z,68.59
2022-08-22T16:21:36.314Z,68.88
2022-08-22T16:26:02.192Z,69.01
2022-08-22T16:30:41.351Z,69.60
2022-08-22T16:35:17.905Z,69.98
2022-08-22T16:39:50.391Z,70.48
2022-08-22T16:44:23.323Z,70.77
2022-08-22T16:48:56.186Z,70.93
2022-08-22T16:53:32.693Z,71.23
2022-08-22T16:58:11.093Z,71.18
2022-08-22T17:02:50.337Z,71.13
2022-08-22T17:07:24.216Z,71.25
2022-08-22T17:11:55.120Z,70.95
2022-08-22T17:16:26.766Z,71.26
2022-08-22T17:21:04.375Z,71.59
2022-08-22T17:25:43.723Z,71.41
2022-08-22T17:30:07.636Z,71.86
2022-08-22T17:34:45.972Z,71.96
2022-08-22T17:39:22.534Z,72.59
2022-08-22T17:44:04.811Z,73.11
2022-08-22T17:48:32.328Z,73.24
2022-08-22T17:53:05.220Z,73.65
2022-08-22T17:57:40.226Z,74.01
2022-08-22T18:02:04.834Z,74.58
2022-08-22T18:06:36.233Z,75.09
2022-08-22T18:11:12.181Z,75.49
2022-08-22T18:16:03.918Z,75.70
2022-08-22T18:20:37.279Z,75.95
2022-08-22T18:25:24.011Z,76.12
2022-08-22T18:30:03.192Z,76.32
2022-08-22T18:34:48.170Z,76.12
2022-08-22T18:39:30.030Z,76.13
2022-08-22T18:44:15.380Z,75.85
2022-08-22T18:49:18.293Z,75.98
2022-08-22T18:53:49.537Z,76.23
2022-08-22T18:58:27.088Z,76.61
2022-08-22T19:03:00.147Z,76.67
2022-08-22T19:07:29.966Z,76.89
2022-08-22T19:12:21.974Z,77.26
2022-08-22T19:16:54.684Z,76.85
2022-08-22T19:21:26.358Z,76.06
2022-08-22T19:26:03.679Z,76.01
2022-08-22T19:30:39.054Z,75.91
2022-08-22T19:35:10.495Z,75.59
2022-08-22T19:39:35.900Z,75.66
2022-08-22T19:44:00.826Z,75.42
2022-08-22T19:48:36.862Z,75.71
2022-08-22T19:53:37.546Z,75.46
2022-08-22T19:58:08.947Z,75.51
2022-08-22T20:02:42.322Z,76.02
2022-08-22T20:07:45.524Z,76.17
2022-08-22T20:11:58.280Z,76.25
2022-08-22T20:16:29.737Z,76.10
2022-08-22T20:21:02.779Z,76.24
2022-08-22T20:30:12.217Z,76.34
2022-08-22T20:34:44.761Z,75.99
2022-08-22T20:39:34.438Z,75.81
2022-08-22T20:44:09.407Z,75.86
2022-08-22T20:48:42.659Z,76.33
2022-08-22T20:53:00.657Z,76.27
2022-08-22T20:57:18.604Z,76.43
2022-08-22T21:01:31.245Z,76.47
2022-08-22T21:05:50.230Z,76.71
2022-08-22T21:10:22.886Z,76.81
2022-08-22T21:14:47.574Z,76.48
2022-08-22T21:19:16.558Z,76.52
2022-08-22T21:23:29.512Z,76.56
2022-08-22T21:27:36.364Z,76.45
2022-08-22T21:31:51.778Z,76.28
2022-08-22T21:36:27.345Z,76.61
2022-08-22T21:40:40.065Z,77.08
2022-08-22T21:44:45.900Z,77.27
2022-08-22T21:49:11.956Z,77.40
2022-08-22T21:53:47.515Z,77.69
2022-08-22T21:58:36.544Z,77.82
2022-08-22T22:03:08.943Z,77.68
2022-08-22T22:07:21.710Z,77.92
2022-08-22T22:12:11.267Z,78.05
2022-08-22T22:16:24.121Z,78.46
2022-08-22T22:20:36.426Z,78.41
2022-08-22T22:25:02.471Z,78.52
2022-08-22T22:29:28.454Z,78.78
2022-08-22T22:34:01.670Z,78.66
2022-08-22T22:38:14.834Z,78.59
2022-08-22T22:42:27.390Z,78.62
2022-08-22T22:47:01.757Z,78.61
2022-08-22T22:51:34.667Z,79.00
2022-08-22T22:55:48.109Z,78.90
2022-08-22T23:05:06.341Z,77.79
2022-08-22T23:09:18.684Z,77.55
2022-08-22T23:13:31.078Z,77.66
2022-08-22T23:22:47.136Z,77.84
2022-08-22T23:27:09.336Z,77.74
2022-08-22T23:31:21.653Z,78.16
2022-08-22T23:35:25.776Z,78.27
2022-08-22T23:39:37.883Z,78.26
2022-08-22T23:43:50.567Z,78.36
2022-08-22T23:48:09.094Z,78.32
2022-08-22T23:52:21.997Z,78.25
2022-08-22T23:56:34.495Z,78.52
